createdAt,value
2019-02-03T00:01:26.962Z,99.90
2019-02-03T00:03:54.910Z,99.90
2019-02-03T00:06:24.153Z,99.90
2019-02-03T00:08:52.078Z,99.90
2019-02-03T00:11:19.766Z,99.90
2019-02-03T00:13:47.641Z,99.90
2019-02-03T00:16:15.389Z,99.90
2019-02-03T00:18:45.048Z,99.90
2019-02-03T00:21:12.881Z,99.90
2019-02-03T00:23:40.550Z,99.90
2019-02-03T00:26:08.326Z,99.90
2019-02-03T00:28:36.131Z,99.90
2019-02-03T00:31:04.558Z,99.90
2019-02-03T00:33:32.453Z,99.90
2019-02-03T00:36:00.809Z,99.90
2019-02-03T00:38:28.622Z,99.90
2019-02-03T00:40:56.608Z,99.90
2019-02-03T00:43:24.449Z,99.90
2019-02-03T00:45:52.319Z,99.90
2019-02-03T00:48:20.101Z,99.90
2019-02-03T00:50:47.993Z,99.90
2019-02-03T00:53:15.659Z,99.90
2019-02-03T00:55:43.426Z,99.90
2019-02-03T00:58:11.102Z,99.90
2019-02-03T01:00:39.162Z,99.90
2019-02-03T01:03:06.943Z,99.90
2019-02-03T01:05:35.344Z,99.90
2019-02-03T01:08:04.956Z,99.90
2019-02-03T01:10:33.005Z,99.90
2019-02-03T01:13:00.784Z,99.90
2019-02-03T01:15:28.743Z,99.90
2019-02-03T01:17:56.597Z,99.90
2019-02-03T01:20:24.299Z,99.90
2019-02-03T01:22:52.341Z,99.90
2019-02-03T01:25:20.643Z,99.90
2019-02-03T01:27:48.498Z,99.90
2019-02-03T01:30:17.681Z,99.90
2019-02-03T01:32:47.025Z,99.90
2019-02-03T01:35:15.221Z,99.90
2019-02-03T01:37:43.074Z,99.90
2019-02-03T01:40:13.449Z,99.90
2019-02-03T01:42:42.798Z,99.90
2019-02-03T01:45:13.076Z,99.90
2019-02-03T01:47:42.437Z,99.90
2019-02-03T01:50:11.955Z,99.90
2019-02-03T01:52:40.929Z,99.90
2019-02-03T01:55:11.271Z,99.90
2019-02-03T01:57:40.550Z,99.90
2019-02-03T02:00:12.962Z,99.90
2019-02-03T02:02:42.379Z,99.90
2019-02-03T02:05:10.718Z,99.90
2019-02-03T02:07:50.871Z,99.90
2019-02-03T02:10:11.061Z,99.90
2019-02-03T02:12:40.348Z,99.90
2019-02-03T02:15:10.670Z,99.90
2019-02-03T02:17:39.935Z,99.90
2019-02-03T02:20:11.654Z,99.90
2019-02-03T02:22:40.930Z,99.90
2019-02-03T02:25:08.770Z,99.90
2019-02-03T02:27:36.654Z,99.90
2019-02-03T02:30:06.863Z,99.90
2019-02-03T02:32:36.742Z,99.90
2019-02-03T02:35:06.345Z,99.90
2019-02-03T02:37:35.637Z,99.90
2019-02-03T02:40:12.761Z,99.90
2019-02-03T02:42:36.168Z,99.90
2019-02-03T02:45:04.705Z,99.90
2019-02-03T02:47:34.364Z,99.90
2019-02-03T02:50:02.340Z,99.90
2019-02-03T02:52:31.605Z,99.90
2019-02-03T02:54:59.358Z,99.90
2019-02-03T02:57:27.021Z,99.90
2019-02-03T02:59:54.758Z,99.90
2019-02-03T03:02:22.935Z,99.90
2019-02-03T03:04:50.841Z,99.90
2019-02-03T03:07:18.773Z,99.90
2019-02-03T03:09:46.570Z,99.90
2019-02-03T03:12:14.315Z,99.90
2019-02-03T03:14:41.965Z,99.90
2019-02-03T03:17:10.229Z,99.90
2019-02-03T03:19:38.126Z,99.90
2019-02-03T03:22:06.058Z,99.90
2019-02-03T03:24:34.026Z,99.90
2019-02-03T03:27:01.897Z,99.90
2019-02-03T03:29:29.645Z,99.90
2019-02-03T03:31:57.994Z,99.90
2019-02-03T03:34:25.805Z,99.90
2019-02-03T03:36:53.773Z,99.90
2019-02-03T03:39:21.647Z,99.90
2019-02-03T03:41:49.598Z,99.90
2019-02-03T03:44:17.473Z,99.90
2019-02-03T03:46:45.445Z,99.90
2019-02-03T03:49:13.325Z,99.90
2019-02-03T03:51:42.666Z,99.90
2019-02-03T03:54:10.325Z,99.90
2019-02-03T03:56:38.021Z,99.90
2019-02-03T03:59:05.778Z,99.90
2019-02-03T04:01:33.482Z,99.90
2019-02-03T04:04:01.414Z,99.90
2019-02-03T04:06:29.487Z,99.90
2019-02-03T04:08:57.452Z,99.90
2019-02-03T04:11:25.101Z,99.90
2019-02-03T04:13:53.024Z,99.90
2019-02-03T04:16:21.889Z,99.90
2019-02-03T04:18:49.823Z,99.90
2019-02-03T04:21:17.494Z,99.90
2019-02-03T04:23:45.252Z,99.90
2019-02-03T04:26:12.922Z,99.90
2019-02-03T04:28:40.652Z,99.90
2019-02-03T04:31:08.329Z,99.90
2019-02-03T04:33:36.065Z,99.90
2019-02-03T04:36:04.029Z,99.90
2019-02-03T04:38:31.860Z,99.90
2019-02-03T04:40:59.546Z,99.90
2019-02-03T04:43:27.482Z,99.90
2019-02-03T04:45:55.263Z,99.90
2019-02-03T04:48:23.207Z,99.90
2019-02-03T04:50:50.896Z,99.90
2019-02-03T04:53:18.634Z,99.90
2019-02-03T04:55:46.378Z,99.90
2019-02-03T04:58:14.217Z,99.90
2019-02-03T05:00:42.181Z,99.90
2019-02-03T05:03:09.941Z,99.90
2019-02-03T05:05:38.081Z,99.90
2019-02-03T05:08:06.036Z,99.90
2019-02-03T05:10:33.938Z,99.90
2019-02-03T05:13:01.722Z,99.90
2019-02-03T05:15:29.693Z,99.90
2019-02-03T05:17:57.437Z,99.90
2019-02-03T05:20:26.612Z,99.90
2019-02-03T05:22:54.507Z,99.90
2019-02-03T05:25:22.639Z,99.90
2019-02-03T05:27:50.493Z,99.90
2019-02-03T05:30:23.688Z,99.90
2019-02-03T05:32:53.136Z,99.90
2019-02-03T05:35:21.445Z,99.90
2019-02-03T05:37:50.825Z,99.90
2019-02-03T05:40:18.688Z,99.90
2019-02-03T05:42:46.835Z,99.90
2019-02-03T05:45:16.254Z,99.90
2019-02-03T05:47:45.676Z,99.90
2019-02-03T05:50:15.282Z,99.90
2019-02-03T05:52:44.752Z,99.90
2019-02-03T05:55:13.154Z,99.90
2019-02-03T05:57:41.898Z,99.90
2019-02-03T06:00:12.977Z,99.90
2019-02-03T06:02:42.703Z,99.90
2019-02-03T06:05:10.481Z,99.90
2019-02-03T06:07:38.341Z,99.90
2019-02-03T06:10:09.368Z,99.90
2019-02-03T06:12:38.718Z,99.90
2019-02-03T06:15:25.863Z,99.90
2019-02-03T06:17:53.703Z,99.90
2019-02-03T06:20:21.475Z,99.90
2019-02-03T06:22:49.110Z,99.90
2019-02-03T06:25:16.946Z,99.90
2019-02-03T06:27:44.734Z,99.90
2019-02-03T06:30:56.728Z,99.90
2019-02-03T06:33:26.082Z,99.90
2019-02-03T06:35:53.817Z,99.90
2019-02-03T06:38:21.623Z,99.90
2019-02-03T06:40:49.318Z,99.90
2019-02-03T06:43:17.178Z,99.90
2019-02-03T06:46:04.474Z,99.90
2019-02-03T06:48:42.618Z,99.90
2019-02-03T06:51:10.502Z,99.90
2019-02-03T06:53:40.163Z,99.90
2019-02-03T06:56:07.842Z,99.90
2019-02-03T06:58:36.006Z,99.90
2019-02-03T07:01:04.095Z,99.90
2019-02-03T07:03:32.070Z,99.90
2019-02-03T07:05:59.848Z,99.90
2019-02-03T07:08:27.909Z,99.90
2019-02-03T07:10:55.713Z,99.90
2019-02-03T07:13:23.445Z,99.90
2019-02-03T07:15:51.283Z,99.90
2019-02-03T07:18:19.093Z,99.90
2019-02-03T07:20:46.845Z,99.90
2019-02-03T07:23:14.534Z,99.90
2019-02-03T07:25:42.318Z,99.90
2019-02-03T07:28:10.101Z,99.90
2019-02-03T07:30:38.414Z,99.90
2019-02-03T07:33:06.126Z,99.90
2019-02-03T07:35:33.951Z,99.90
2019-02-03T07:38:01.778Z,99.90
2019-02-03T07:40:29.867Z,99.90
2019-02-03T07:42:58.166Z,99.90
2019-02-03T07:45:26.213Z,99.90
2019-02-03T07:47:53.920Z,99.90
2019-02-03T07:50:21.773Z,99.90
2019-02-03T07:52:49.454Z,99.90
2019-02-03T07:55:17.207Z,99.90
2019-02-03T07:57:44.977Z,99.90
2019-02-03T08:00:12.892Z,99.90
2019-02-03T08:02:42.288Z,99.90
2019-02-03T08:05:10.407Z,99.90
2019-02-03T08:07:38.404Z,99.90
2019-02-03T08:10:06.283Z,99.90
2019-02-03T08:12:35.657Z,99.90
2019-02-03T08:15:06.104Z,99.90
2019-02-03T08:17:37.369Z,99.90
2019-02-03T08:20:06.803Z,99.90
2019-02-03T08:22:36.299Z,99.90
2019-02-03T08:25:05.488Z,99.90
2019-02-03T08:27:34.768Z,99.90
2019-02-03T08:30:06.018Z,99.90
2019-02-03T08:32:35.372Z,99.90
2019-02-03T08:35:05.067Z,99.90
2019-02-03T08:37:32.962Z,99.90
2019-02-03T08:40:00.855Z,99.90
2019-02-03T08:42:30.257Z,99.90
2019-02-03T08:44:58.179Z,99.90
2019-02-03T08:47:26.940Z,99.90
2019-02-03T08:49:55.634Z,99.90
2019-02-03T08:52:23.328Z,99.90
2019-02-03T08:54:58.297Z,99.90
2019-02-03T08:57:20.640Z,99.90
2019-02-03T08:59:48.806Z,99.90
2019-02-03T09:02:16.606Z,99.90
2019-02-03T09:04:44.588Z,99.90
2019-02-03T09:07:12.322Z,99.90
2019-02-03T09:09:40.128Z,99.90
2019-02-03T09:12:07.805Z,99.90
2019-02-03T09:14:36.083Z,99.90
2019-02-03T09:17:03.874Z,99.90
2019-02-03T09:19:31.866Z,99.90
2019-02-03T09:21:59.757Z,99.90
2019-02-03T09:24:27.531Z,99.90
2019-02-03T09:26:55.447Z,99.90
2019-02-03T09:29:23.128Z,99.90
2019-02-03T09:31:51.027Z,99.90
2019-02-03T09:34:18.823Z,99.90
2019-02-03T09:36:46.562Z,99.90
2019-02-03T09:39:14.288Z,99.90
2019-02-03T09:41:42.042Z,99.90
2019-02-03T09:44:09.971Z,99.90
2019-02-03T09:46:38.160Z,99.90
2019-02-03T09:49:06.069Z,99.90
2019-02-03T09:51:35.108Z,99.90
2019-02-03T09:54:03.320Z,99.90
2019-02-03T09:56:31.276Z,99.90
2019-02-03T09:58:59.068Z,99.90
2019-02-03T10:01:27.013Z,99.90
2019-02-03T10:03:54.815Z,99.90
2019-02-03T10:06:22.578Z,99.90
2019-02-03T10:08:50.391Z,99.90
2019-02-03T10:11:18.161Z,99.90
2019-02-03T10:13:45.963Z,99.90
2019-02-03T10:16:13.936Z,99.90
2019-02-03T10:18:41.941Z,99.90
2019-02-03T10:21:09.753Z,99.90
2019-02-03T10:23:37.757Z,99.90
2019-02-03T10:26:05.666Z,99.90
2019-02-03T10:28:33.572Z,99.90
2019-02-03T10:31:01.305Z,99.90
2019-02-03T10:33:29.609Z,99.90
2019-02-03T10:35:57.552Z,99.90
2019-02-03T10:38:25.434Z,99.90
2019-02-03T10:40:53.421Z,99.90
2019-02-03T10:43:21.418Z,99.90
2019-02-03T10:45:49.245Z,99.90
2019-02-03T10:48:17.166Z,99.90
2019-02-03T10:50:45.000Z,99.90
2019-02-03T10:53:12.795Z,99.50
2019-02-03T10:55:40.599Z,99.90
2019-02-03T10:58:08.654Z,99.60
2019-02-03T11:00:37.519Z,98.70
2019-02-03T11:03:06.910Z,99.60
2019-02-03T11:05:40.686Z,99.20
2019-02-03T11:08:11.730Z,98.70
2019-02-03T11:10:39.829Z,99.40
2019-02-03T11:13:07.736Z,98.70
2019-02-03T11:15:35.708Z,98.70
2019-02-03T11:18:04.251Z,98.90
2019-02-03T11:20:32.882Z,98.60
2019-02-03T11:23:02.883Z,98.20
2019-02-03T11:25:31.767Z,98.80
2019-02-03T11:27:59.908Z,99.30
2019-02-03T11:30:32.180Z,99.70
2019-02-03T11:33:06.551Z,98.10
2019-02-03T11:35:33.891Z,98.10
2019-02-03T11:38:01.909Z,97.80
2019-02-03T11:40:31.718Z,97.50
2019-02-03T11:43:01.096Z,97.60
2019-02-03T11:45:32.352Z,97.60
2019-02-03T11:48:02.106Z,97.60
2019-02-03T11:50:34.245Z,98.40
2019-02-03T11:53:05.989Z,97.70
2019-02-03T11:55:35.382Z,98.00
2019-02-03T11:58:07.137Z,98.10
2019-02-03T12:00:36.166Z,98.00
2019-02-03T12:03:05.213Z,97.70
2019-02-03T12:05:33.390Z,97.30
2019-02-03T12:08:01.254Z,97.30
2019-02-03T12:10:30.277Z,97.20
2019-02-03T12:12:58.877Z,96.90
2019-02-03T12:15:26.854Z,97.50
2019-02-03T12:17:54.949Z,97.70
2019-02-03T12:20:22.899Z,97.60
2019-02-03T12:22:50.889Z,97.30
2019-02-03T12:25:23.245Z,97.00
2019-02-03T12:27:53.129Z,97.10
2019-02-03T12:30:26.751Z,96.90
2019-02-03T12:32:56.191Z,96.90
2019-02-03T12:35:24.181Z,97.00
2019-02-03T12:37:52.348Z,96.30
2019-02-03T12:40:28.560Z,96.60
2019-02-03T12:42:58.480Z,97.00
2019-02-03T12:45:26.488Z,96.80
2019-02-03T12:47:54.753Z,96.50
2019-02-03T12:50:22.631Z,97.00
2019-02-03T12:52:50.695Z,97.50
2019-02-03T12:55:20.682Z,96.70
2019-02-03T12:57:50.148Z,96.40
2019-02-03T13:00:20.710Z,96.50
2019-02-03T13:02:50.011Z,96.50
2019-02-03T13:05:19.304Z,96.70
2019-02-03T13:07:48.749Z,96.90
2019-02-03T13:10:19.055Z,97.00
2019-02-03T13:12:48.392Z,96.50
2019-02-03T13:15:19.227Z,97.00
2019-02-03T13:17:48.573Z,96.90
2019-02-03T13:20:21.837Z,97.50
2019-02-03T13:22:52.809Z,97.80
2019-02-03T13:25:21.797Z,97.70
2019-02-03T13:27:49.881Z,98.20
2019-02-03T13:30:31.781Z,98.50
2019-02-03T13:33:01.204Z,98.70
2019-02-03T13:35:29.124Z,98.30
2019-02-03T13:37:56.993Z,98.30
2019-02-03T13:40:24.977Z,98.30
2019-02-03T13:42:52.841Z,98.30
2019-02-03T13:45:21.219Z,98.50
2019-02-03T13:47:50.878Z,98.40
2019-02-03T13:50:22.195Z,98.00
2019-02-03T13:52:52.024Z,98.40
2019-02-03T13:55:20.833Z,98.70
2019-02-03T13:57:49.271Z,98.70
2019-02-03T14:00:25.731Z,98.90
2019-02-03T14:02:55.185Z,99.20
2019-02-03T14:05:23.165Z,99.30
2019-02-03T14:07:51.159Z,99.20
2019-02-03T14:10:29.877Z,99.60
2019-02-03T14:12:59.811Z,99.10
2019-02-03T14:15:28.031Z,99.00
2019-02-03T14:17:56.419Z,99.00
2019-02-03T14:20:26.664Z,99.20
2019-02-03T14:22:56.721Z,99.00
2019-02-03T14:25:25.470Z,99.00
2019-02-03T14:27:53.344Z,99.20
2019-02-03T14:30:26.781Z,99.20
2019-02-03T14:32:58.413Z,99.10
2019-02-03T14:35:25.962Z,99.10
2019-02-03T14:37:53.886Z,99.10
2019-02-03T14:40:22.880Z,99.10
2019-02-03T14:43:01.147Z,98.90
2019-02-03T14:45:21.382Z,99.20
2019-02-03T14:47:50.762Z,99.20
2019-02-03T14:50:19.817Z,99.40
2019-02-03T14:52:49.920Z,99.30
2019-02-03T14:55:21.169Z,99.40
2019-02-03T14:57:50.547Z,99.80
2019-02-03T15:00:24.604Z,99.70
2019-02-03T15:02:53.981Z,99.70
2019-02-03T15:05:22.584Z,99.90
2019-02-03T15:07:50.662Z,99.90
2019-02-03T15:10:18.453Z,99.90
2019-02-03T15:12:46.178Z,99.90
2019-02-03T15:15:18.176Z,99.90
2019-02-03T15:17:47.670Z,99.90
2019-02-03T15:20:17.871Z,99.90
2019-02-03T15:22:47.334Z,99.90
2019-02-03T15:25:15.360Z,99.90
2019-02-03T15:27:43.301Z,99.90
2019-02-03T15:30:19.722Z,99.90
2019-02-03T15:32:48.470Z,99.90
2019-02-03T15:35:16.258Z,99.90
2019-02-03T15:37:44.186Z,99.90
2019-02-03T15:40:13.221Z,99.90
2019-02-03T15:42:42.622Z,99.90
2019-02-03T15:45:12.530Z,99.90
2019-02-03T15:47:41.937Z,99.90
2019-02-03T15:50:18.031Z,99.90
2019-02-03T15:52:47.514Z,99.90
2019-02-03T15:55:20.852Z,99.90
2019-02-03T15:57:50.694Z,99.90
2019-02-03T16:00:21.184Z,99.90
2019-02-03T16:02:50.537Z,99.90
2019-02-03T16:05:18.438Z,99.90
2019-02-03T16:07:46.358Z,99.90
2019-02-03T16:10:16.570Z,99.90
2019-02-03T16:12:46.486Z,99.90
2019-02-03T16:15:14.606Z,99.90
2019-02-03T16:17:42.706Z,99.90
2019-02-03T16:20:13.380Z,99.90
2019-02-03T16:22:42.811Z,99.90
2019-02-03T16:25:10.778Z,99.90
2019-02-03T16:27:38.966Z,99.90
2019-02-03T16:30:09.456Z,99.90
2019-02-03T16:32:38.953Z,99.90
2019-02-03T16:35:07.719Z,99.90
2019-02-03T16:37:37.587Z,99.90
2019-02-03T16:40:07.587Z,99.90
2019-02-03T16:42:37.007Z,99.90
2019-02-03T16:45:05.921Z,99.90
2019-02-03T16:47:35.500Z,99.90
2019-02-03T16:50:04.806Z,99.90
2019-02-03T16:52:34.242Z,99.90
2019-02-03T16:55:03.203Z,99.90
2019-02-03T16:57:32.615Z,99.90
2019-02-03T17:00:00.471Z,99.90
2019-02-03T17:02:28.429Z,99.90
2019-02-03T17:04:56.248Z,99.90
2019-02-03T17:07:24.206Z,99.90
2019-02-03T17:09:52.231Z,99.90
2019-02-03T17:12:20.245Z,99.90
2019-02-03T17:14:48.154Z,99.90
2019-02-03T17:17:16.010Z,99.90
2019-02-03T17:19:43.978Z,99.90
2019-02-03T17:22:11.919Z,99.90
2019-02-03T17:24:40.063Z,99.90
2019-02-03T17:27:07.986Z,99.90
2019-02-03T17:29:35.805Z,99.90
2019-02-03T17:32:03.741Z,99.90
2019-02-03T17:34:31.640Z,99.90
2019-02-03T17:36:59.496Z,99.90
2019-02-03T17:39:27.492Z,99.90
2019-02-03T17:41:55.645Z,99.90
2019-02-03T17:44:23.546Z,99.90
2019-02-03T17:46:51.383Z,99.90
2019-02-03T17:49:19.374Z,99.90
2019-02-03T17:51:47.206Z,99.90
2019-02-03T17:54:15.125Z,99.90
2019-02-03T17:56:47.120Z,99.90
2019-02-03T17:59:21.506Z,99.90
2019-02-03T18:01:49.346Z,99.90
2019-02-03T18:04:17.405Z,99.90
2019-02-03T18:06:45.149Z,99.90
2019-02-03T18:09:13.165Z,99.90
2019-02-03T18:11:41.473Z,99.90
2019-02-03T18:14:09.431Z,99.90
2019-02-03T18:16:37.554Z,99.90
2019-02-03T18:19:05.318Z,99.90
2019-02-03T18:21:33.371Z,99.90
2019-02-03T18:24:01.239Z,99.90
2019-02-03T18:26:29.069Z,99.90
2019-02-03T18:28:57.073Z,99.90
2019-02-03T18:31:25.103Z,99.90
2019-02-03T18:33:53.043Z,99.90
2019-02-03T18:36:21.030Z,99.90
2019-02-03T18:38:49.005Z,99.90
2019-02-03T18:41:16.830Z,99.90
2019-02-03T18:43:44.925Z,99.90
2019-02-03T18:46:13.009Z,99.90
2019-02-03T18:48:40.973Z,99.90
2019-02-03T18:51:09.023Z,99.90
2019-02-03T18:53:36.860Z,99.90
2019-02-03T18:56:04.585Z,99.90
2019-02-03T18:58:32.902Z,99.90
2019-02-03T19:01:00.801Z,99.90
2019-02-03T19:03:28.682Z,99.90
2019-02-03T19:05:56.493Z,99.90
2019-02-03T19:08:24.331Z,99.90
2019-02-03T19:10:52.205Z,99.90
2019-02-03T19:13:20.243Z,99.50
2019-02-03T19:15:48.202Z,99.40
2019-02-03T19:18:16.068Z,99.00
2019-02-03T19:20:43.877Z,98.70
2019-02-03T19:23:11.972Z,98.00
2019-02-03T19:25:40.318Z,97.80
2019-02-03T19:28:08.924Z,97.50
2019-02-03T19:30:36.809Z,97.50
2019-02-03T19:33:05.593Z,97.40
2019-02-03T19:35:33.573Z,97.20
2019-02-03T19:38:02.120Z,96.30
2019-02-03T19:40:31.270Z,96.90
2019-02-03T19:42:59.364Z,96.70
2019-02-03T19:45:28.294Z,96.10
2019-02-03T19:47:57.169Z,96.00
2019-02-03T19:50:27.672Z,96.30
2019-02-03T19:52:57.271Z,96.30
2019-02-03T19:55:25.434Z,96.30
2019-02-03T19:57:53.275Z,96.10
2019-02-03T20:00:30.496Z,96.10
2019-02-03T20:02:59.931Z,96.20
2019-02-03T20:05:29.157Z,96.30
2019-02-03T20:07:57.016Z,96.60
2019-02-03T20:12:53.874Z,97.10
2019-02-03T20:15:21.983Z,96.90
2019-02-03T20:17:50.277Z,97.10
2019-02-03T20:20:20.474Z,97.30
2019-02-03T20:22:49.903Z,97.20
2019-02-03T20:25:18.776Z,96.90
2019-02-03T20:27:47.143Z,96.90
2019-02-03T20:30:19.953Z,97.10
2019-02-03T20:32:49.269Z,96.90
2019-02-03T20:35:18.377Z,96.80
2019-02-03T20:37:47.938Z,96.90
2019-02-03T20:40:23.853Z,96.80
2019-02-03T20:42:53.184Z,97.10
2019-02-03T20:45:21.623Z,97.20
2019-02-03T20:47:49.726Z,96.90
2019-02-03T20:50:19.098Z,96.70
2019-02-03T20:52:48.401Z,96.60
2019-02-03T20:55:17.128Z,96.20
2019-02-03T20:57:46.145Z,96.60
2019-02-03T21:00:17.298Z,96.50
2019-02-03T21:02:46.689Z,96.10
2019-02-03T21:05:14.850Z,96.10
2019-02-03T21:07:42.845Z,96.10
2019-02-03T21:10:12.887Z,96.00
2019-02-03T21:12:42.276Z,96.20
2019-02-03T21:15:12.534Z,96.20
2019-02-03T21:17:42.062Z,95.80
2019-02-03T21:20:15.921Z,95.90
2019-02-03T21:22:46.345Z,96.20
2019-02-03T21:25:14.903Z,96.20
2019-02-03T21:27:43.598Z,96.20
2019-02-03T21:30:14.987Z,96.00
2019-02-03T21:32:44.377Z,96.20
2019-02-03T21:35:12.184Z,96.20
2019-02-03T21:37:40.054Z,96.20
2019-02-03T21:40:11.233Z,96.20
2019-02-03T21:42:40.583Z,96.30
2019-02-03T21:45:08.958Z,96.00
2019-02-03T21:47:37.578Z,96.10
2019-02-03T21:50:08.825Z,96.00
2019-02-03T21:52:38.173Z,96.20
2019-02-03T21:55:07.557Z,96.30
2019-02-03T21:57:36.890Z,96.20
2019-02-03T22:00:08.173Z,96.20
2019-02-03T22:02:37.474Z,95.70
2019-02-03T22:05:05.569Z,95.90
2019-02-03T22:07:36.295Z,96.10
2019-02-03T22:10:04.700Z,96.20
2019-02-03T22:12:34.102Z,96.40
2019-02-03T22:15:01.819Z,96.40
2019-02-03T22:17:31.130Z,96.40
2019-02-03T22:19:58.946Z,96.60
2019-02-03T22:22:26.655Z,96.50
2019-02-03T22:24:54.411Z,96.10
2019-02-03T22:27:22.177Z,96.20
2019-02-03T22:29:49.963Z,95.90
2019-02-03T22:32:17.893Z,96.00
2019-02-03T22:34:45.695Z,95.90
2019-02-03T22:37:13.459Z,95.80
2019-02-03T22:39:41.408Z,95.90
2019-02-03T22:42:09.265Z,95.60
2019-02-03T22:44:37.045Z,95.40
2019-02-03T22:47:04.960Z,95.60
2019-02-03T22:49:33.197Z,95.40
2019-02-03T22:52:00.942Z,95.50
2019-02-03T22:54:28.675Z,95.10
2019-02-03T22:56:56.530Z,94.90
2019-02-03T22:59:24.289Z,95.20
2019-02-03T23:01:53.060Z,95.50
2019-02-03T23:04:26.958Z,95.50
2019-02-03T23:06:54.733Z,95.40
2019-02-03T23:09:32.103Z,95.30
2019-02-03T23:12:01.510Z,95.40
2019-02-03T23:14:30.801Z,95.40
2019-02-03T23:16:59.074Z,95.40
2019-02-03T23:19:26.963Z,95.20
2019-02-03T23:21:54.717Z,95.20
2019-02-03T23:24:22.413Z,95.40
2019-02-03T23:26:50.240Z,95.10
2019-02-03T23:29:18.030Z,95.10
2019-02-03T23:31:45.838Z,95.40
2019-02-03T23:34:13.721Z,95.50
2019-02-03T23:36:41.503Z,95.40
2019-02-03T23:39:11.733Z,95.20
2019-02-03T23:41:39.445Z,95.40
2019-02-03T23:44:07.443Z,95.20
2019-02-03T23:46:35.196Z,95.40
2019-02-03T23:49:03.464Z,95.20
2019-02-03T23:51:31.256Z,95.30
2019-02-03T23:53:59.181Z,95.40
2019-02-03T23:56:26.986Z,95.50
2019-02-03T23:58:54.802Z,95.60
